sensor_id;sensor_type;location;lat;lon;timestamp;pressure;altitude;pressure_sealevel;temperature;humidity
9129;BME280;4599;50.906;6.786;2023-10-13T00:01:09;100063.59;;;16.43;89.66
9129;BME280;4599;50.906;6.786;2023-10-13T00:05:11;100051.81;;;16.49;88.97
9129;BME280;4599;50.906;6.786;2023-10-13T00:09:12;100057.75;;;16.41;89.86
9129;BME280;4599;50.906;6.786;2023-10-13T00:13:15;100054.66;;;16.29;89.92
9129;BME280;4599;50.906;6.786;2023-10-13T00:17:17;100062.78;;;16.42;89.10
9129;BME280;4599;50.906;6.786;2023-10-13T00:21:19;100057.44;;;16.44;88.94
9129;BME280;4599;50.906;6.786;2023-10-13T00:25:21;100053.13;;;16.53;87.82
9129;BME280;4599;50.906;6.786;2023-10-13T00:29:24;100038.34;;;16.63;87.82
9129;BME280;4599;50.906;6.786;2023-10-13T00:33:25;100024.44;;;16.64;88.27
9129;BME280;4599;50.906;6.786;2023-10-13T00:37:27;100026.38;;;16.70;87.92
9129;BME280;4599;50.906;6.786;2023-10-13T00:41:29;100021.56;;;16.75;87.30
9129;BME280;4599;50.906;6.786;2023-10-13T00:45:33;100022.22;;;16.77;87.31
9129;BME280;4599;50.906;6.786;2023-10-13T00:49:36;100018.34;;;16.81;87.34
9129;BME280;4599;50.906;6.786;2023-10-13T00:53:39;100012.22;;;16.82;86.88
9129;BME280;4599;50.906;6.786;2023-10-13T00:57:42;100003.94;;;16.86;86.93
9129;BME280;4599;50.906;6.786;2023-10-13T01:01:45;99995.69;;;16.83;87.40
9129;BME280;4599;50.906;6.786;2023-10-13T01:05:49;99994.09;;;16.90;86.55
9129;BME280;4599;50.906;6.786;2023-10-13T01:09:50;99987.63;;;16.86;86.77
9129;BME280;4599;50.906;6.786;2023-10-13T01:13:52;99985.19;;;16.84;87.28
9129;BME280;4599;50.906;6.786;2023-10-13T01:18:06;99969.34;;;16.87;86.63
9129;BME280;4599;50.906;6.786;2023-10-13T01:22:08;99966.44;;;16.82;87.24
9129;BME280;4599;50.906;6.786;2023-10-13T01:26:10;99957.06;;;16.89;86.93
9129;BME280;4599;50.906;6.786;2023-10-13T01:30:13;99959.28;;;16.76;87.13
9129;BME280;4599;50.906;6.786;2023-10-13T01:34:15;99957.16;;;16.64;87.79
9129;BME280;4599;50.906;6.786;2023-10-13T01:38:17;99941.97;;;16.69;87.84
9129;BME280;4599;50.906;6.786;2023-10-13T01:42:20;99951.53;;;16.76;88.15
9129;BME280;4599;50.906;6.786;2023-10-13T01:46:21;99946.69;;;16.81;87.96
9129;BME280;4599;50.906;6.786;2023-10-13T01:50:23;99944.91;;;16.82;88.39
9129;BME280;4599;50.906;6.786;2023-10-13T01:54:24;99938.94;;;16.81;87.86
9129;BME280;4599;50.906;6.786;2023-10-13T01:58:27;99936.78;;;16.69;88.87
9129;BME280;4599;50.906;6.786;2023-10-13T02:02:29;99927.75;;;16.81;88.05
9129;BME280;4599;50.906;6.786;2023-10-13T02:06:32;99924.06;;;16.75;88.20
9129;BME280;4599;50.906;6.786;2023-10-13T02:10:34;99918.06;;;16.75;88.47
9129;BME280;4599;50.906;6.786;2023-10-13T02:14:37;99914.63;;;16.58;89.36
9129;BME280;4599;50.906;6.786;2023-10-13T02:18:39;99908.47;;;16.59;89.13
9129;BME280;4599;50.906;6.786;2023-10-13T02:22:41;99895.38;;;16.69;88.50
9129;BME280;4599;50.906;6.786;2023-10-13T02:26:43;99897.19;;;16.68;89.37
9129;BME280;4599;50.906;6.786;2023-10-13T02:30:47;99887.50;;;16.78;88.85
9129;BME280;4599;50.906;6.786;2023-10-13T02:34:48;99882.66;;;16.75;89.25
9129;BME280;4599;50.906;6.786;2023-10-13T02:38:50;99874.88;;;16.83;88.70
9129;BME280;4599;50.906;6.786;2023-10-13T02:42:52;99873.56;;;16.79;88.71
9129;BME280;4599;50.906;6.786;2023-10-13T02:46:56;99867.09;;;16.67;88.72
9129;BME280;4599;50.906;6.786;2023-10-13T02:50:59;99867.41;;;16.72;88.85
9129;BME280;4599;50.906;6.786;2023-10-13T02:55:00;99855.47;;;16.71;88.95
9129;BME280;4599;50.906;6.786;2023-10-13T02:59:02;99856.09;;;16.65;89.22
9129;BME280;4599;50.906;6.786;2023-10-13T03:03:05;99845.75;;;16.73;88.96
9129;BME280;4599;50.906;6.786;2023-10-13T03:07:07;99841.06;;;16.77;89.09
9129;BME280;4599;50.906;6.786;2023-10-13T03:11:09;99823.75;;;16.69;89.29
9129;BME280;4599;50.906;6.786;2023-10-13T03:15:11;99826.03;;;16.72;89.58
9129;BME280;4599;50.906;6.786;2023-10-13T03:19:14;99831.53;;;16.85;88.94
9129;BME280;4599;50.906;6.786;2023-10-13T03:23:15;99813.75;;;16.74;89.40
9129;BME280;4599;50.906;6.786;2023-10-13T03:27:18;99804.84;;;16.69;89.88
9129;BME280;4599;50.906;6.786;2023-10-13T03:31:20;99805.00;;;16.67;90.00
9129;BME280;4599;50.906;6.786;2023-10-13T03:35:23;99791.91;;;16.69;90.29
9129;BME280;4599;50.906;6.786;2023-10-13T03:39:24;99779.13;;;16.67;90.38
9129;BME280;4599;50.906;6.786;2023-10-13T03:43:27;99778.19;;;16.68;90.37
9129;BME280;4599;50.906;6.786;2023-10-13T03:47:29;99777.84;;;16.71;90.17
9129;BME280;4599;50.906;6.786;2023-10-13T03:51:32;99768.94;;;16.82;89.78
9129;BME280;4599;50.906;6.786;2023-10-13T03:55:33;99761.16;;;16.90;89.37
9129;BME280;4599;50.906;6.786;2023-10-13T03:59:36;99759.03;;;16.93;89.26
9129;BME280;4599;50.906;6.786;2023-10-13T04:03:37;99756.16;;;16.88;89.52
9129;BME280;4599;50.906;6.786;2023-10-13T04:07:40;99752.41;;;16.83;89.90
9129;BME280;4599;50.906;6.786;2023-10-13T04:11:43;99755.47;;;16.95;89.54
9129;BME280;4599;50.906;6.786;2023-10-13T04:15:45;99745.94;;;16.95;89.30
9129;BME280;4599;50.906;6.786;2023-10-13T04:19:47;99746.09;;;16.93;90.13
9129;BME280;4599;50.906;6.786;2023-10-13T04:23:50;99745.78;;;16.97;89.88
9129;BME280;4599;50.906;6.786;2023-10-13T04:27:51;99746.09;;;16.93;90.60
9129;BME280;4599;50.906;6.786;2023-10-13T04:31:55;99736.88;;;16.99;90.06
9129;BME280;4599;50.906;6.786;2023-10-13T04:36:01;99723.41;;;17.12;89.50
9129;BME280;4599;50.906;6.786;2023-10-13T04:40:06;99723.13;;;17.07;90.09
9129;BME280;4599;50.906;6.786;2023-10-13T04:44:09;99718.06;;;17.21;88.90
9129;BME280;4599;50.906;6.786;2023-10-13T04:48:10;99702.91;;;17.02;90.34
9129;BME280;4599;50.906;6.786;2023-10-13T04:52:13;99705.00;;;16.99;90.54
9129;BME280;4599;50.906;6.786;2023-10-13T04:56:20;99687.84;;;16.98;90.67
9129;BME280;4599;50.906;6.786;2023-10-13T05:00:22;99700.63;;;16.99;90.36
9129;BME280;4599;50.906;6.786;2023-10-13T05:04:24;99700.91;;;17.12;89.99
9129;BME280;4599;50.906;6.786;2023-10-13T05:08:26;99698.78;;;17.16;89.83
9129;BME280;4599;50.906;6.786;2023-10-13T05:12:29;99689.13;;;17.10;89.93
9129;BME280;4599;50.906;6.786;2023-10-13T05:16:31;99689.75;;;17.12;89.93
9129;BME280;4599;50.906;6.786;2023-10-13T05:20:33;99686.69;;;17.08;90.25
9129;BME280;4599;50.906;6.786;2023-10-13T05:24:35;99685.25;;;16.98;90.98
9129;BME280;4599;50.906;6.786;2023-10-13T05:28:37;99692.66;;;17.09;90.49
9129;BME280;4599;50.906;6.786;2023-10-13T05:32:40;99691.34;;;17.21;90.07
9129;BME280;4599;50.906;6.786;2023-10-13T05:36:42;99689.22;;;17.24;89.68
9129;BME280;4599;50.906;6.786;2023-10-13T05:40:52;99694.06;;;17.27;89.64
9129;BME280;4599;50.906;6.786;2023-10-13T05:44:54;99687.59;;;17.23;90.48
9129;BME280;4599;50.906;6.786;2023-10-13T05:48:56;99689.38;;;17.23;90.51
9129;BME280;4599;50.906;6.786;2023-10-13T05:52:58;99679.53;;;17.18;91.76
9129;BME280;4599;50.906;6.786;2023-10-13T05:57:00;99682.63;;;17.14;92.16
9129;BME280;4599;50.906;6.786;2023-10-13T06:01:03;99685.69;;;17.17;91.58
9129;BME280;4599;50.906;6.786;2023-10-13T06:05:07;99689.84;;;17.26;91.96
9129;BME280;4599;50.906;6.786;2023-10-13T06:09:11;99695.03;;;17.26;91.81
9129;BME280;4599;50.906;6.786;2023-10-13T06:13:13;99681.63;;;17.23;91.85
9129;BME280;4599;50.906;6.786;2023-10-13T06:17:16;99683.06;;;17.25;91.97
9129;BME280;4599;50.906;6.786;2023-10-13T06:21:21;99682.91;;;17.19;92.27
9129;BME280;4599;50.906;6.786;2023-10-13T06:25:22;99682.91;;;17.27;91.71
9129;BME280;4599;50.906;6.786;2023-10-13T06:29:25;99668.50;;;17.24;91.86
9129;BME280;4599;50.906;6.786;2023-10-13T06:33:29;99661.34;;;17.34;91.64
9129;BME280;4599;50.906;6.786;2023-10-13T06:37:31;99661.94;;;17.45;91.15
9129;BME280;4599;50.906;6.786;2023-10-13T06:41:34;99653.31;;;17.52;90.36
9129;BME280;4599;50.906;6.786;2023-10-13T06:45:36;99650.88;;;17.51;90.41
9129;BME280;4599;50.906;6.786;2023-10-13T06:49:39;99643.84;;;17.67;89.68
9129;BME280;4599;50.906;6.786;2023-10-13T06:53:42;99638.91;;;17.80;88.42
9129;BME280;4599;50.906;6.786;2023-10-13T06:57:44;99634.34;;;17.82;88.15
9129;BME280;4599;50.906;6.786;2023-10-13T07:01:45;99636.63;;;18.00;87.20
9129;BME280;4599;50.906;6.786;2023-10-13T07:05:48;99628.94;;;18.07;86.57
9129;BME280;4599;50.906;6.786;2023-10-13T07:09:50;99632.13;;;18.17;86.30
9129;BME280;4599;50.906;6.786;2023-10-13T07:13:52;99626.59;;;18.20;86.20
9129;BME280;4599;50.906;6.786;2023-10-13T07:17:53;99627.75;;;18.32;85.56
9129;BME280;4599;50.906;6.786;2023-10-13T07:21:57;99622.41;;;18.33;85.21
9129;BME280;4599;50.906;6.786;2023-10-13T07:25:59;99616.84;;;18.36;84.70
9129;BME280;4599;50.906;6.786;2023-10-13T07:30:01;99620.19;;;18.45;84.32
9129;BME280;4599;50.906;6.786;2023-10-13T07:34:04;99621.72;;;18.54;83.91
9129;BME280;4599;50.906;6.786;2023-10-13T07:38:07;99619.59;;;18.58;83.70
9129;BME280;4599;50.906;6.786;2023-10-13T07:42:08;99626.41;;;18.59;83.61
9129;BME280;4599;50.906;6.786;2023-10-13T07:46:11;99618.09;;;18.63;83.12
9129;BME280;4599;50.906;6.786;2023-10-13T07:50:13;99618.78;;;18.72;82.83
9129;BME280;4599;50.906;6.786;2023-10-13T07:54:17;99620.13;;;18.68;83.80
9129;BME280;4599;50.906;6.786;2023-10-13T07:58:18;99613.88;;;18.77;82.74
9129;BME280;4599;50.906;6.786;2023-10-13T08:02:20;99609.25;;;19.08;80.48
9129;BME280;4599;50.906;6.786;2023-10-13T08:06:23;99602.59;;;19.20;79.64
9129;BME280;4599;50.906;6.786;2023-10-13T08:10:26;99594.13;;;19.33;78.74
9129;BME280;4599;50.906;6.786;2023-10-13T08:14:27;99585.16;;;19.35;78.46
9129;BME280;4599;50.906;6.786;2023-10-13T08:18:40;99581.38;;;19.38;77.50
9129;BME280;4599;50.906;6.786;2023-10-13T08:22:42;99583.38;;;19.36;77.28
9129;BME280;4599;50.906;6.786;2023-10-13T08:26:45;99577.72;;;19.47;75.40
9129;BME280;4599;50.906;6.786;2023-10-13T08:30:47;99580.00;;;19.78;73.03
9129;BME280;4599;50.906;6.786;2023-10-13T08:34:48;99568.56;;;20.00;72.89
9129;BME280;4599;50.906;6.786;2023-10-13T08:38:50;99559.53;;;19.96;71.13
9129;BME280;4599;50.906;6.786;2023-10-13T08:42:56;99567.81;;;20.06;70.55
9129;BME280;4599;50.906;6.786;2023-10-13T08:46:58;99586.47;;;20.16;70.58
9129;BME280;4599;50.906;6.786;2023-10-13T08:51:02;99579.84;;;20.07;70.59
9129;BME280;4599;50.906;6.786;2023-10-13T08:55:05;99585.22;;;20.06;70.72
9129;BME280;4599;50.906;6.786;2023-10-13T08:59:08;99583.84;;;20.10;69.96
9129;BME280;4599;50.906;6.786;2023-10-13T09:03:12;99578.00;;;20.29;74.39
9129;BME280;4599;50.906;6.786;2023-10-13T09:07:15;99584.91;;;20.43;76.31
9129;BME280;4599;50.906;6.786;2023-10-13T09:11:16;99578.78;;;20.57;70.36
9129;BME280;4599;50.906;6.786;2023-10-13T09:15:30;99576.78;;;20.66;72.59
9129;BME280;4599;50.906;6.786;2023-10-13T09:19:31;99572.38;;;20.66;70.07
9129;BME280;4599;50.906;6.786;2023-10-13T09:23:33;99555.63;;;20.75;66.97
9129;BME280;4599;50.906;6.786;2023-10-13T09:27:35;99543.28;;;20.97;66.67
9129;BME280;4599;50.906;6.786;2023-10-13T09:31:38;99548.97;;;21.33;64.15
9129;BME280;4599;50.906;6.786;2023-10-13T09:35:40;99539.81;;;21.70;62.11
9129;BME280;4599;50.906;6.786;2023-10-13T09:39:42;99535.59;;;21.96;61.27
9129;BME280;4599;50.906;6.786;2023-10-13T09:43:44;99525.72;;;22.24;60.03
9129;BME280;4599;50.906;6.786;2023-10-13T09:47:50;99506.56;;;22.94;57.42
9129;BME280;4599;50.906;6.786;2023-10-13T09:51:54;99505.06;;;23.43;55.21
9129;BME280;4599;50.906;6.786;2023-10-13T09:56:02;99499.50;;;23.57;56.04
9129;BME280;4599;50.906;6.786;2023-10-13T10:00:11;99502.09;;;23.01;56.48
9129;BME280;4599;50.906;6.786;2023-10-13T10:04:20;99488.25;;;22.56;57.61
9129;BME280;4599;50.906;6.786;2023-10-13T10:08:25;99497.50;;;22.52;57.95
9129;BME280;4599;50.906;6.786;2023-10-13T10:12:35;99499.94;;;22.92;57.93
9129;BME280;4599;50.906;6.786;2023-10-13T10:16:50;99498.66;;;24.43;53.17
9129;BME280;4599;50.906;6.786;2023-10-13T10:21:05;99496.19;;;25.49;49.48
9129;BME280;4599;50.906;6.786;2023-10-13T10:25:09;99497.91;;;26.25;48.39
9129;BME280;4599;50.906;6.786;2023-10-13T10:29:11;99482.53;;;26.73;47.48
9129;BME280;4599;50.906;6.786;2023-10-13T10:33:13;99490.22;;;26.75;47.76
9129;BME280;4599;50.906;6.786;2023-10-13T10:37:16;99481.38;;;27.26;44.50
9129;BME280;4599;50.906;6.786;2023-10-13T10:41:25;99476.09;;;27.26;45.54
9129;BME280;4599;50.906;6.786;2023-10-13T10:45:27;99470.84;;;28.14;41.32
9129;BME280;4599;50.906;6.786;2023-10-13T10:49:37;99475.84;;;26.94;43.54
9129;BME280;4599;50.906;6.786;2023-10-13T10:53:42;99465.91;;;27.29;42.78
9129;BME280;4599;50.906;6.786;2023-10-13T10:57:43;99446.41;;;27.80;41.62
9129;BME280;4599;50.906;6.786;2023-10-13T11:01:46;99451.47;;;29.05;38.49
9129;BME280;4599;50.906;6.786;2023-10-13T11:05:49;99452.16;;;27.77;41.84
9129;BME280;4599;50.906;6.786;2023-10-13T11:09:52;99454.66;;;26.44;44.71
9129;BME280;4599;50.906;6.786;2023-10-13T11:13:54;99446.59;;;25.82;46.92
9129;BME280;4599;50.906;6.786;2023-10-13T11:17:56;99445.63;;;25.30;47.15
9129;BME280;4599;50.906;6.786;2023-10-13T11:21:58;99442.91;;;24.84;48.95
9129;BME280;4599;50.906;6.786;2023-10-13T11:26:00;99439.53;;;24.35;49.10
9129;BME280;4599;50.906;6.786;2023-10-13T11:30:03;99440.84;;;24.08;49.77
9129;BME280;4599;50.906;6.786;2023-10-13T11:34:05;99425.28;;;23.95;50.18
9129;BME280;4599;50.906;6.786;2023-10-13T11:38:06;99415.22;;;23.92;50.59
9129;BME280;4599;50.906;6.786;2023-10-13T11:42:09;99418.28;;;23.89;51.60
9129;BME280;4599;50.906;6.786;2023-10-13T11:46:13;99419.06;;;24.44;48.89
9129;BME280;4599;50.906;6.786;2023-10-13T11:50:19;99414.50;;;24.39;48.22
9129;BME280;4599;50.906;6.786;2023-10-13T11:54:22;99408.75;;;24.31;49.70
9129;BME280;4599;50.906;6.786;2023-10-13T11:58:27;99408.25;;;24.04;50.25
9129;BME280;4599;50.906;6.786;2023-10-13T12:02:30;99410.38;;;23.59;51.78
9129;BME280;4599;50.906;6.786;2023-10-13T12:06:34;99391.72;;;23.24;51.92
9129;BME280;4599;50.906;6.786;2023-10-13T12:10:36;99390.59;;;23.20;52.50
9129;BME280;4599;50.906;6.786;2023-10-13T12:14:39;99388.59;;;23.15;52.22
9129;BME280;4599;50.906;6.786;2023-10-13T12:18:42;99381.34;;;23.17;51.98
9129;BME280;4599;50.906;6.786;2023-10-13T12:22:44;99385.75;;;23.17;53.05
9129;BME280;4599;50.906;6.786;2023-10-13T12:26:45;99367.66;;;22.97;52.24
9129;BME280;4599;50.906;6.786;2023-10-13T12:30:48;99367.09;;;22.89;52.67
9129;BME280;4599;50.906;6.786;2023-10-13T12:34:52;99363.59;;;22.76;52.51
9129;BME280;4599;50.906;6.786;2023-10-13T12:38:56;99369.34;;;22.85;52.09
9129;BME280;4599;50.906;6.786;2023-10-13T12:42:58;99360.63;;;22.98;51.47
9129;BME280;4599;50.906;6.786;2023-10-13T12:47:03;99357.06;;;22.86;50.74
9129;BME280;4599;50.906;6.786;2023-10-13T12:51:05;99358.31;;;22.83;51.94
9129;BME280;4599;50.906;6.786;2023-10-13T12:55:07;99346.69;;;22.79;51.68
9129;BME280;4599;50.906;6.786;2023-10-13T12:59:09;99338.59;;;22.87;51.15
9129;BME280;4599;50.906;6.786;2023-10-13T13:03:12;99343.38;;;22.90;50.82
9129;BME280;4599;50.906;6.786;2023-10-13T13:07:14;99336.88;;;22.99;50.81
9129;BME280;4599;50.906;6.786;2023-10-13T13:11:16;99336.28;;;22.97;50.63
9129;BME280;4599;50.906;6.786;2023-10-13T13:15:18;99342.63;;;22.83;50.67
9129;BME280;4599;50.906;6.786;2023-10-13T13:19:21;99341.69;;;22.77;51.19
9129;BME280;4599;50.906;6.786;2023-10-13T13:23:24;99337.63;;;22.81;50.65
9129;BME280;4599;50.906;6.786;2023-10-13T13:27:26;99354.94;;;22.76;51.44
9129;BME280;4599;50.906;6.786;2023-10-13T13:31:28;99365.03;;;22.66;51.70
9129;BME280;4599;50.906;6.786;2023-10-13T13:35:31;99344.50;;;22.76;51.63
9129;BME280;4599;50.906;6.786;2023-10-13T13:39:33;99331.94;;;22.60;51.53
9129;BME280;4599;50.906;6.786;2023-10-13T13:43:35;99326.38;;;22.50;52.26
9129;BME280;4599;50.906;6.786;2023-10-13T13:47:38;99315.34;;;22.48;52.67
9129;BME280;4599;50.906;6.786;2023-10-13T13:51:44;99312.31;;;22.51;52.36
9129;BME280;4599;50.906;6.786;2023-10-13T13:55:45;99315.25;;;22.61;50.75
9129;BME280;4599;50.906;6.786;2023-10-13T13:59:47;99310.00;;;22.67;50.89
9129;BME280;4599;50.906;6.786;2023-10-13T14:03:49;99317.94;;;22.79;50.28
9129;BME280;4599;50.906;6.786;2023-10-13T14:07:55;99316.38;;;22.96;50.29
9129;BME280;4599;50.906;6.786;2023-10-13T14:11:56;99311.34;;;23.01;50.06
9129;BME280;4599;50.906;6.786;2023-10-13T14:15:58;99341.81;;;23.07;49.13
9129;BME280;4599;50.906;6.786;2023-10-13T14:20:00;99335.91;;;22.94;50.79
9129;BME280;4599;50.906;6.786;2023-10-13T14:24:07;99334.53;;;22.91;50.72
9129;BME280;4599;50.906;6.786;2023-10-13T14:28:10;99340.03;;;22.83;51.31
9129;BME280;4599;50.906;6.786;2023-10-13T14:32:13;99337.84;;;22.80;51.67
9129;BME280;4599;50.906;6.786;2023-10-13T14:36:14;99317.00;;;22.73;52.25
9129;BME280;4599;50.906;6.786;2023-10-13T14:40:19;99332.91;;;22.65;52.96
9129;BME280;4599;50.906;6.786;2023-10-13T14:44:21;99316.47;;;22.58;52.48
9129;BME280;4599;50.906;6.786;2023-10-13T14:48:23;99317.72;;;22.56;52.28
9129;BME280;4599;50.906;6.786;2023-10-13T14:52:25;99328.59;;;22.46;52.62
9129;BME280;4599;50.906;6.786;2023-10-13T14:56:29;99322.81;;;22.44;52.35
9129;BME280;4599;50.906;6.786;2023-10-13T15:00:30;99309.09;;;22.24;52.86
9129;BME280;4599;50.906;6.786;2023-10-13T15:04:32;99305.88;;;22.22;52.69
9129;BME280;4599;50.906;6.786;2023-10-13T15:08:34;99303.28;;;22.15;53.12
9129;BME280;4599;50.906;6.786;2023-10-13T15:12:40;99304.09;;;22.16;51.85
9129;BME280;4599;50.906;6.786;2023-10-13T15:16:43;99282.66;;;22.14;51.99
9129;BME280;4599;50.906;6.786;2023-10-13T15:20:45;99289.50;;;22.08;52.24
9129;BME280;4599;50.906;6.786;2023-10-13T15:24:47;99285.69;;;22.04;51.77
9129;BME280;4599;50.906;6.786;2023-10-13T15:28:51;99282.28;;;22.04;51.79
9129;BME280;4599;50.906;6.786;2023-10-13T15:32:53;99292.13;;;22.02;51.89
9129;BME280;4599;50.906;6.786;2023-10-13T15:36:56;99301.00;;;21.94;51.97
9129;BME280;4599;50.906;6.786;2023-10-13T15:40:58;99302.22;;;21.92;52.69
9129;BME280;4599;50.906;6.786;2023-10-13T15:45:02;99281.13;;;21.87;53.59
9129;BME280;4599;50.906;6.786;2023-10-13T15:49:06;99282.06;;;21.54;56.02
9129;BME280;4599;50.906;6.786;2023-10-13T15:53:15;99267.69;;;21.45;54.32
9129;BME280;4599;50.906;6.786;2023-10-13T15:57:18;99261.47;;;21.46;54.75
9129;BME280;4599;50.906;6.786;2023-10-13T16:01:21;99258.63;;;21.48;52.70
9129;BME280;4599;50.906;6.786;2023-10-13T16:05:23;99252.19;;;21.57;53.07
9129;BME280;4599;50.906;6.786;2023-10-13T16:09:26;99256.00;;;21.54;53.85
9129;BME280;4599;50.906;6.786;2023-10-13T16:13:28;99254.84;;;21.50;53.14
9129;BME280;4599;50.906;6.786;2023-10-13T16:17:31;99256.81;;;21.55;53.56
9129;BME280;4599;50.906;6.786;2023-10-13T16:21:33;99254.03;;;21.50;53.44
9129;BME280;4599;50.906;6.786;2023-10-13T16:25:34;99255.63;;;21.57;53.48
9129;BME280;4599;50.906;6.786;2023-10-13T16:29:37;99250.41;;;21.51;53.68
9129;BME280;4599;50.906;6.786;2023-10-13T16:33:40;99248.22;;;21.48;53.98
9129;BME280;4599;50.906;6.786;2023-10-13T16:37:46;99249.81;;;21.49;54.43
9129;BME280;4599;50.906;6.786;2023-10-13T16:41:48;99247.22;;;21.49;54.03
9129;BME280;4599;50.906;6.786;2023-10-13T16:45:51;99230.59;;;21.43;55.84
9129;BME280;4599;50.906;6.786;2023-10-13T16:49:54;99218.72;;;21.47;54.54
9129;BME280;4599;50.906;6.786;2023-10-13T16:53:56;99219.75;;;21.46;54.54
9129;BME280;4599;50.906;6.786;2023-10-13T16:57:58;99217.38;;;21.38;55.26
9129;BME280;4599;50.906;6.786;2023-10-13T17:02:00;99215.59;;;21.32;55.56
9129;BME280;4599;50.906;6.786;2023-10-13T17:06:03;99204.56;;;21.30;55.65
9129;BME280;4599;50.906;6.786;2023-10-13T17:10:07;99197.63;;;21.17;56.59
9129;BME280;4599;50.906;6.786;2023-10-13T17:14:09;99199.81;;;21.20;56.74
9129;BME280;4599;50.906;6.786;2023-10-13T17:18:10;99201.03;;;21.18;57.03
9129;BME280;4599;50.906;6.786;2023-10-13T17:22:14;99185.41;;;21.18;56.17
9129;BME280;4599;50.906;6.786;2023-10-13T17:26:16;99189.38;;;21.20;56.49
9129;BME280;4599;50.906;6.786;2023-10-13T17:30:18;99193.63;;;21.15;58.15
9129;BME280;4599;50.906;6.786;2023-10-13T17:34:19;99184.22;;;21.01;58.86
9129;BME280;4599;50.906;6.786;2023-10-13T17:38:23;99181.81;;;20.99;58.15
9129;BME280;4599;50.906;6.786;2023-10-13T17:42:24;99166.78;;;20.95;58.98
9129;BME280;4599;50.906;6.786;2023-10-13T17:46:26;99165.84;;;20.76;59.85
9129;BME280;4599;50.906;6.786;2023-10-13T17:50:28;99161.03;;;20.73;59.58
9129;BME280;4599;50.906;6.786;2023-10-13T17:54:31;99164.25;;;20.68;59.91
9129;BME280;4599;50.906;6.786;2023-10-13T17:58:33;99159.44;;;20.72;60.40
9129;BME280;4599;50.906;6.786;2023-10-13T18:02:35;99157.44;;;20.67;62.10
9129;BME280;4599;50.906;6.786;2023-10-13T18:06:36;99150.22;;;20.76;60.63
9129;BME280;4599;50.906;6.786;2023-10-13T18:10:39;99148.41;;;20.76;58.87
9129;BME280;4599;50.906;6.786;2023-10-13T18:14:41;99150.41;;;20.74;61.57
9129;BME280;4599;50.906;6.786;2023-10-13T18:18:44;99141.22;;;20.59;60.15
9129;BME280;4599;50.906;6.786;2023-10-13T18:22:46;99139.25;;;20.61;59.58
9129;BME280;4599;50.906;6.786;2023-10-13T18:26:49;99137.81;;;20.58;59.49
9129;BME280;4599;50.906;6.786;2023-10-13T18:30:56;99142.63;;;20.55;62.53
9129;BME280;4599;50.906;6.786;2023-10-13T18:34:58;99127.84;;;20.42;60.95
9129;BME280;4599;50.906;6.786;2023-10-13T18:38:59;99134.63;;;20.63;59.49
9129;BME280;4599;50.906;6.786;2023-10-13T18:43:05;99124.63;;;20.53;60.92
9129;BME280;4599;50.906;6.786;2023-10-13T18:47:06;99124.22;;;20.56;59.81
9129;BME280;4599;50.906;6.786;2023-10-13T18:51:09;99112.81;;;20.44;60.36
9129;BME280;4599;50.906;6.786;2023-10-13T18:55:11;99117.84;;;20.46;64.65
9129;BME280;4599;50.906;6.786;2023-10-13T18:59:14;99106.25;;;20.28;61.89
9129;BME280;4599;50.906;6.786;2023-10-13T19:03:16;99112.03;;;20.30;64.39
9129;BME280;4599;50.906;6.786;2023-10-13T19:07:18;99068.63;;;20.31;60.73
9129;BME280;4599;50.906;6.786;2023-10-13T19:11:20;99005.16;;;20.39;60.55
9129;BME280;4599;50.906;6.786;2023-10-13T19:15:23;99019.34;;;20.43;61.57
9129;BME280;4599;50.906;6.786;2023-10-13T19:19:25;99026.00;;;20.32;60.85
9129;BME280;4599;50.906;6.786;2023-10-13T19:23:26;99024.75;;;20.41;60.12
9129;BME280;4599;50.906;6.786;2023-10-13T19:27:28;99029.94;;;20.54;58.93
9129;BME280;4599;50.906;6.786;2023-10-13T19:31:32;99040.75;;;20.45;58.99
9129;BME280;4599;50.906;6.786;2023-10-13T19:35:38;99039.56;;;20.54;59.39
9129;BME280;4599;50.906;6.786;2023-10-13T19:39:39;99016.94;;;20.48;59.81
9129;BME280;4599;50.906;6.786;2023-10-13T19:43:41;99011.66;;;20.67;56.82
9129;BME280;4599;50.906;6.786;2023-10-13T19:47:46;99026.22;;;20.81;56.40
9129;BME280;4599;50.906;6.786;2023-10-13T19:51:48;99016.34;;;20.97;55.20
9129;BME280;4599;50.906;6.786;2023-10-13T19:55:49;99035.75;;;21.01;55.94
9129;BME280;4599;50.906;6.786;2023-10-13T19:59:52;99009.00;;;20.80;57.97
9129;BME280;4599;50.906;6.786;2023-10-13T20:03:57;99003.41;;;20.77;56.82
9129;BME280;4599;50.906;6.786;2023-10-13T20:07:59;98999.59;;;20.79;56.46
9129;BME280;4599;50.906;6.786;2023-10-13T20:12:00;98984.16;;;20.78;56.97
9129;BME280;4599;50.906;6.786;2023-10-13T20:16:02;98980.00;;;20.70;56.72
9129;BME280;4599;50.906;6.786;2023-10-13T20:20:06;98994.81;;;20.70;57.51
9129;BME280;4599;50.906;6.786;2023-10-13T20:24:08;98995.03;;;20.68;58.29
9129;BME280;4599;50.906;6.786;2023-10-13T20:28:09;98992.75;;;20.34;63.41
9129;BME280;4599;50.906;6.786;2023-10-13T20:32:11;98987.84;;;19.86;65.67
9129;BME280;4599;50.906;6.786;2023-10-13T20:36:14;98968.25;;;19.71;64.02
9129;BME280;4599;50.906;6.786;2023-10-13T20:40:16;98979.47;;;19.71;63.69
9129;BME280;4599;50.906;6.786;2023-10-13T20:44:18;98965.84;;;19.82;63.21
9129;BME280;4599;50.906;6.786;2023-10-13T20:48:19;98971.03;;;19.89;63.70
9129;BME280;4599;50.906;6.786;2023-10-13T20:52:22;98979.03;;;19.94;63.61
9129;BME280;4599;50.906;6.786;2023-10-13T20:56:24;98971.84;;;19.90;64.38
9129;BME280;4599;50.906;6.786;2023-10-13T21:00:26;98966.22;;;19.93;64.59
9129;BME280;4599;50.906;6.786;2023-10-13T21:04:27;98973.63;;;19.96;63.80
9129;BME280;4599;50.906;6.786;2023-10-13T21:08:31;98983.84;;;19.97;64.69
9129;BME280;4599;50.906;6.786;2023-10-13T21:12:32;98942.03;;;19.92;64.39
9129;BME280;4599;50.906;6.786;2023-10-13T21:16:36;98974.84;;;19.93;64.49
9129;BME280;4599;50.906;6.786;2023-10-13T21:20:38;98988.44;;;19.88;64.67
9129;BME280;4599;50.906;6.786;2023-10-13T21:24:41;98969.22;;;19.96;64.13
9129;BME280;4599;50.906;6.786;2023-10-13T21:28:43;98962.84;;;19.85;65.36
9129;BME280;4599;50.906;6.786;2023-10-13T21:32:46;98957.84;;;19.77;66.86
9129;BME280;4599;50.906;6.786;2023-10-13T21:36:48;98947.09;;;19.48;68.53
9129;BME280;4599;50.906;6.786;2023-10-13T21:40:51;98955.25;;;19.18;72.02
9129;BME280;4599;50.906;6.786;2023-10-13T21:44:52;98939.66;;;19.05;70.91
9129;BME280;4599;50.906;6.786;2023-10-13T21:48:54;98930.09;;;19.06;71.49
9129;BME280;4599;50.906;6.786;2023-10-13T21:52:55;98931.88;;;18.99;71.36
9129;BME280;4599;50.906;6.786;2023-10-13T21:56:59;98942.84;;;19.01;71.48
9129;BME280;4599;50.906;6.786;2023-10-13T22:01:00;98939.44;;;19.07;70.90